KBRY/BRY METAR and TAF weather

Enter ICAO airport designator
Station Type Date Time Source
KBRY METAR 2020/07/07 09:55 UTC NOAA

KBRY 070955Z AUTO 00000KT 10SM CLR 20/20 A2999 RMK AO1


Station Type Date Time Source
KBRY Decoded METAR 2020/07/07 09:55 UTC NOAA

Station name not available
Jul 07, 2020 - 05:55 AM EDT / 2020.07.07 0955 UTC
Wind: Calm:0
Visibility: 10 mile(s):0
Sky conditions: clear
Temperature: 68 F (20 C)
Dew Point: 68 F (20 C)
Relative Humidity: 100%
Pressure (altimeter): 29.99 in. Hg (1015 hPa)
ob: KBRY 070955Z AUTO 00000KT 10SM CLR 20/20 A2999 RMK AO1
cycle: 10

Station Type Date Time Source
KBRY TAF UTC NOAA

Error!

Example: see airport list